createdAt,value
2018-06-20T00:00:24.492Z,1020.51
2018-06-20T00:01:24.563Z,1020.47
2018-06-20T00:02:24.447Z,1020.49
2018-06-20T00:03:24.462Z,1020.45
2018-06-20T00:04:24.408Z,1020.44
2018-06-20T00:05:24.476Z,1020.46
2018-06-20T00:06:24.368Z,1020.44
2018-06-20T00:07:24.424Z,1020.44
2018-06-20T00:08:24.331Z,1020.44
2018-06-20T00:09:24.399Z,1020.43
2018-06-20T00:10:24.291Z,1020.42
2018-06-20T00:11:24.312Z,1020.40
2018-06-20T00:12:24.251Z,1020.38
2018-06-20T00:13:24.326Z,1020.40
2018-06-20T00:14:24.215Z,1020.38
2018-06-20T00:15:24.235Z,1020.38
2018-06-20T00:16:24.173Z,1020.36
2018-06-20T00:17:24.246Z,1020.34
2018-06-20T00:18:24.131Z,1020.35
2018-06-20T00:19:24.150Z,1020.33
2018-06-20T00:20:24.095Z,1020.34
2018-06-20T00:21:24.164Z,1020.36
2018-06-20T00:22:24.052Z,1020.37
2018-06-20T00:23:25.101Z,1020.35
2018-06-20T00:24:24.017Z,1020.37
2018-06-20T00:25:24.088Z,1020.34
2018-06-20T00:26:23.974Z,1020.37
2018-06-20T00:27:24.000Z,1020.34
2018-06-20T00:28:23.933Z,1020.36
2018-06-20T00:29:24.013Z,1020.36
2018-06-20T00:30:23.893Z,1020.34
2018-06-20T00:31:23.925Z,1020.33
2018-06-20T00:32:23.857Z,1020.35
2018-06-20T00:33:23.938Z,1020.34
2018-06-20T00:34:23.817Z,1020.33
2018-06-20T00:35:23.851Z,1020.32
2018-06-20T00:36:23.777Z,1020.31
2018-06-20T00:37:23.862Z,1020.29
2018-06-20T00:38:23.734Z,1020.28
2018-06-20T00:39:23.768Z,1020.28
2018-06-20T00:40:23.697Z,1020.28
2018-06-20T00:41:23.782Z,1020.26
2018-06-20T00:42:23.660Z,1020.27
2018-06-20T00:43:23.704Z,1020.28
2018-06-20T00:44:23.616Z,1020.29
2018-06-20T00:45:23.701Z,1020.27
2018-06-20T00:46:23.577Z,1020.26
2018-06-20T00:47:23.613Z,1020.28
2018-06-20T00:48:23.543Z,1020.20
2018-06-20T00:49:23.624Z,1020.19
2018-06-20T00:50:23.499Z,1020.22
2018-06-20T00:51:23.535Z,1020.15
2018-06-20T00:52:23.456Z,1020.13
2018-06-20T00:53:23.544Z,1020.13
2018-06-20T00:54:23.421Z,1020.14
2018-06-20T00:55:23.456Z,1020.18
2018-06-20T00:56:23.382Z,1020.15
2018-06-20T00:57:23.465Z,1020.11
2018-06-20T00:58:23.342Z,1020.13
2018-06-20T00:59:23.381Z,1020.11
2018-06-20T01:00:23.306Z,1020.13
2018-06-20T01:01:23.390Z,1020.10
2018-06-20T01:02:23.260Z,1020.12
2018-06-20T01:03:23.303Z,1020.13
2018-06-20T01:04:23.223Z,1020.10
2018-06-20T01:05:23.313Z,1020.11
2018-06-20T01:06:23.182Z,1020.10
2018-06-20T01:07:23.224Z,1020.07
2018-06-20T01:08:23.143Z,1020.08
2018-06-20T01:09:23.236Z,1020.09
2018-06-20T01:10:23.103Z,1020.09
2018-06-20T01:11:23.148Z,1020.08
2018-06-20T01:12:23.063Z,1020.10
2018-06-20T01:13:23.060Z,1020.09
2018-06-20T01:14:23.027Z,1020.08
2018-06-20T01:15:23.074Z,1020.05
2018-06-20T01:16:22.982Z,1020.05
2018-06-20T01:17:22.985Z,1020.06
2018-06-20T01:18:22.943Z,1020.06
2018-06-20T01:19:22.993Z,1020.07
2018-06-20T01:20:22.902Z,1020.07
2018-06-20T01:21:23.006Z,1020.07
2018-06-20T01:22:22.865Z,1020.05
2018-06-20T01:23:22.916Z,1020.05
2018-06-20T01:24:22.858Z,1020.05
2018-06-20T01:25:22.828Z,1020.07
2018-06-20T01:26:22.784Z,1020.08
2018-06-20T01:27:22.837Z,1020.12
2018-06-20T01:28:22.746Z,1020.09
2018-06-20T01:29:22.751Z,1020.11
2018-06-20T01:30:22.710Z,1020.09
2018-06-20T01:31:22.760Z,1020.11
2018-06-20T01:32:22.664Z,1020.05
2018-06-20T01:33:22.671Z,1020.08
2018-06-20T01:34:22.626Z,1020.11
2018-06-20T01:35:22.682Z,1020.09
2018-06-20T01:36:22.588Z,1020.07
2018-06-20T01:37:22.596Z,1020.05
2018-06-20T01:38:22.548Z,1020.04
2018-06-20T01:39:22.609Z,1020.04
2018-06-20T01:40:22.506Z,1020.04
2018-06-20T01:41:22.521Z,1020.02
2018-06-20T01:42:22.466Z,1020.04
2018-06-20T01:43:22.533Z,1020.01
2018-06-20T01:44:22.424Z,1020.01
2018-06-20T01:45:22.446Z,1020.03
2018-06-20T01:46:22.389Z,1020.03
2018-06-20T01:47:22.454Z,1020.02
2018-06-20T01:48:22.338Z,1020.02
2018-06-20T01:49:22.365Z,1019.99
2018-06-20T01:50:22.304Z,1019.99
2018-06-20T01:51:22.376Z,1019.99
2018-06-20T01:52:22.264Z,1019.97
2018-06-20T01:53:22.289Z,1020.02
2018-06-20T01:54:22.225Z,1019.98
2018-06-20T01:55:23.219Z,1020.00
2018-06-20T01:56:22.184Z,1020.01
2018-06-20T01:57:22.210Z,1019.98
2018-06-20T01:58:22.147Z,1020.02
2018-06-20T01:59:22.218Z,1020.02
2018-06-20T02:00:22.111Z,1019.98
2018-06-20T02:01:22.127Z,1019.94
2018-06-20T02:02:22.065Z,1019.95
2018-06-20T02:03:22.140Z,1019.94
2018-06-20T02:04:22.024Z,1020.00
2018-06-20T02:05:22.051Z,1019.95
2018-06-20T02:06:21.982Z,1019.93
2018-06-20T02:07:22.067Z,1019.97
2018-06-20T02:08:21.954Z,1019.94
2018-06-20T02:09:21.974Z,1019.92
2018-06-20T02:10:21.907Z,1019.96
2018-06-20T02:11:21.988Z,1019.93
2018-06-20T02:12:21.862Z,1019.90
2018-06-20T02:13:22.922Z,1019.89
2018-06-20T02:14:21.820Z,1019.92
2018-06-20T02:15:21.911Z,1019.89
2018-06-20T02:16:21.781Z,1019.90
2018-06-20T02:17:21.822Z,1019.92
2018-06-20T02:18:21.743Z,1019.94
2018-06-20T02:19:21.834Z,1019.89
2018-06-20T02:20:21.703Z,1019.92
2018-06-20T02:21:21.745Z,1019.91
2018-06-20T02:22:21.660Z,1019.87
2018-06-20T02:23:21.656Z,1019.85
2018-06-20T02:24:21.619Z,1019.85
2018-06-20T02:25:21.669Z,1019.79
2018-06-20T02:26:21.583Z,1019.79
2018-06-20T02:27:21.580Z,1019.78
2018-06-20T02:28:21.540Z,1019.76
2018-06-20T02:29:21.594Z,1019.78
2018-06-20T02:30:21.500Z,1019.77
2018-06-20T02:31:21.500Z,1019.73
2018-06-20T02:32:21.460Z,1019.75
2018-06-20T02:33:21.518Z,1019.74
2018-06-20T02:34:21.418Z,1019.70
2018-06-20T02:35:21.421Z,1019.69
2018-06-20T02:36:21.379Z,1019.71
2018-06-20T02:37:21.429Z,1019.73
2018-06-20T02:38:21.338Z,1019.71
2018-06-20T02:39:21.345Z,1019.73
2018-06-20T02:40:21.295Z,1019.68
2018-06-20T02:41:21.355Z,1019.72
2018-06-20T02:42:21.256Z,1019.71
2018-06-20T02:43:22.290Z,1019.70
2018-06-20T02:44:21.221Z,1019.69
2018-06-20T02:45:21.279Z,1019.72
2018-06-20T02:46:21.176Z,1019.69
2018-06-20T02:47:21.189Z,1019.73
2018-06-20T02:48:21.133Z,1019.70
2018-06-20T02:49:21.198Z,1019.68
2018-06-20T02:50:21.092Z,1019.69
2018-06-20T02:51:21.110Z,1019.64
2018-06-20T02:52:21.051Z,1019.66
2018-06-20T02:53:21.121Z,1019.65
2018-06-20T02:54:21.015Z,1019.66
2018-06-20T02:55:21.032Z,1019.64
2018-06-20T02:56:20.968Z,1019.65
2018-06-20T02:57:21.204Z,1019.62
2018-06-20T02:58:21.219Z,1019.61
2018-06-20T02:59:20.958Z,1019.60
2018-06-20T03:00:20.925Z,1019.60
2018-06-20T03:01:20.972Z,1019.57
2018-06-20T03:02:20.849Z,1019.55
2018-06-20T03:03:20.880Z,1019.58
2018-06-20T03:04:20.807Z,1019.59
2018-06-20T03:05:20.891Z,1019.60
2018-06-20T03:06:20.769Z,1019.56
2018-06-20T03:07:20.802Z,1019.60
2018-06-20T03:08:20.729Z,1019.59
2018-06-20T03:09:20.816Z,1019.56
2018-06-20T03:10:20.689Z,1019.60
2018-06-20T03:11:20.727Z,1019.57
2018-06-20T03:12:20.642Z,1019.61
2018-06-20T03:13:20.736Z,1019.59
2018-06-20T03:14:20.613Z,1019.57
2018-06-20T03:15:20.652Z,1019.54
2018-06-20T03:16:20.566Z,1019.50
2018-06-20T03:17:20.558Z,1019.54
2018-06-20T03:18:20.527Z,1019.47
2018-06-20T03:19:20.571Z,1019.52
2018-06-20T03:20:20.483Z,1019.50
2018-06-20T03:21:21.508Z,1019.50
2018-06-20T03:22:20.443Z,1019.52
2018-06-20T03:23:20.492Z,1019.49
2018-06-20T03:24:20.416Z,1019.50
2018-06-20T03:25:20.403Z,1019.49
2018-06-20T03:26:20.366Z,1019.50
2018-06-20T03:27:20.474Z,1019.49
2018-06-20T03:28:20.325Z,1019.49
2018-06-20T03:29:20.324Z,1019.49
2018-06-20T03:30:20.281Z,1019.50
2018-06-20T03:31:20.335Z,1019.49
2018-06-20T03:32:20.239Z,1019.50
2018-06-20T03:33:20.245Z,1019.47
2018-06-20T03:34:20.202Z,1019.50
2018-06-20T03:35:20.259Z,1019.50
2018-06-20T03:36:20.160Z,1019.48
2018-06-20T03:37:20.168Z,1019.45
2018-06-20T03:38:20.118Z,1019.46
2018-06-20T03:39:20.182Z,1019.45
2018-06-20T03:40:20.075Z,1019.42
2018-06-20T03:41:20.092Z,1019.43
2018-06-20T03:42:20.033Z,1019.45
2018-06-20T03:43:20.102Z,1019.44
2018-06-20T03:44:19.999Z,1019.49
2018-06-20T03:45:20.014Z,1019.45
2018-06-20T03:46:19.955Z,1019.45
2018-06-20T03:47:20.026Z,1019.49
2018-06-20T03:48:19.915Z,1019.49
2018-06-20T03:49:19.937Z,1019.48
2018-06-20T03:50:19.872Z,1019.46
2018-06-20T03:51:19.948Z,1019.47
2018-06-20T03:52:19.830Z,1019.45
2018-06-20T03:53:19.860Z,1019.46
2018-06-20T03:54:19.789Z,1019.46
2018-06-20T03:55:19.871Z,1019.45
2018-06-20T03:56:19.755Z,1019.44
2018-06-20T03:57:19.782Z,1019.45
2018-06-20T03:58:19.713Z,1019.46
2018-06-20T03:59:19.803Z,1019.48
2018-06-20T04:00:19.667Z,1019.48
2018-06-20T04:01:19.708Z,1019.46
2018-06-20T04:02:19.683Z,1019.44
2018-06-20T04:03:19.722Z,1019.43
2018-06-20T04:04:19.582Z,1019.42
2018-06-20T04:05:19.631Z,1019.41
2018-06-20T04:06:19.545Z,1019.40
2018-06-20T04:07:19.533Z,1019.41
2018-06-20T04:08:19.539Z,1019.41
2018-06-20T04:09:19.556Z,1019.43
2018-06-20T04:10:19.461Z,1019.44
2018-06-20T04:11:19.466Z,1019.43
2018-06-20T04:12:19.420Z,1019.45
2018-06-20T04:13:19.475Z,1019.40
2018-06-20T04:14:19.385Z,1019.41
2018-06-20T04:15:19.387Z,1019.42
2018-06-20T04:16:19.342Z,1019.45
2018-06-20T04:17:19.399Z,1019.42
2018-06-20T04:18:19.328Z,1019.45
2018-06-20T04:19:19.311Z,1019.46
2018-06-20T04:20:19.261Z,1019.43
2018-06-20T04:21:19.325Z,1019.45
2018-06-20T04:22:19.218Z,1019.42
2018-06-20T04:23:19.230Z,1019.43
2018-06-20T04:24:19.181Z,1019.41
2018-06-20T04:25:19.244Z,1019.42
2018-06-20T04:26:19.140Z,1019.40
2018-06-20T04:27:19.156Z,1019.41
2018-06-20T04:28:19.091Z,1019.39
2018-06-20T04:29:19.168Z,1019.38
2018-06-20T04:30:19.053Z,1019.37
2018-06-20T04:31:19.079Z,1019.41
2018-06-20T04:32:19.009Z,1019.40
2018-06-20T04:33:19.093Z,1019.40
2018-06-20T04:34:18.968Z,1019.39
2018-06-20T04:35:19.004Z,1019.40
2018-06-20T04:36:18.925Z,1019.35
2018-06-20T04:37:19.016Z,1019.38
2018-06-20T04:38:18.889Z,1019.35
2018-06-20T04:39:18.926Z,1019.35
2018-06-20T04:40:18.846Z,1019.32
2018-06-20T04:41:18.933Z,1019.35
2018-06-20T04:42:18.806Z,1019.34
2018-06-20T04:43:18.840Z,1019.39
2018-06-20T04:44:18.763Z,1019.37
2018-06-20T04:45:18.851Z,1019.39
2018-06-20T04:46:18.724Z,1019.41
2018-06-20T04:47:18.762Z,1019.44
2018-06-20T04:48:18.683Z,1019.42
2018-06-20T04:49:18.774Z,1019.38
2018-06-20T04:50:18.643Z,1019.41
2018-06-20T04:51:18.687Z,1019.42
2018-06-20T04:52:18.605Z,1019.38
2018-06-20T04:53:18.598Z,1019.42
2018-06-20T04:54:18.561Z,1019.41
2018-06-20T04:55:18.540Z,1019.44
2018-06-20T04:56:18.663Z,1019.42
2018-06-20T04:57:18.499Z,1019.38
2018-06-20T04:58:18.577Z,1019.40
2018-06-20T04:59:18.459Z,1019.40
2018-06-20T05:00:18.430Z,1019.43
2018-06-20T05:01:18.417Z,1019.43
2018-06-20T05:02:18.499Z,1019.45
2018-06-20T05:03:18.374Z,1019.43
2018-06-20T05:04:18.608Z,1019.40
2018-06-20T05:05:18.334Z,1019.43
2018-06-20T05:06:18.428Z,1019.40
2018-06-20T05:07:18.294Z,1019.34
2018-06-20T05:08:18.338Z,1019.33
2018-06-20T05:09:18.255Z,1019.32
2018-06-20T05:10:18.351Z,1019.32
2018-06-20T05:11:18.209Z,1019.33
2018-06-20T05:12:18.277Z,1019.39
2018-06-20T05:13:18.171Z,1019.37
2018-06-20T05:14:18.288Z,1019.40
2018-06-20T05:15:18.132Z,1019.38
2018-06-20T05:16:18.195Z,1019.38
2018-06-20T05:17:18.087Z,1019.37
2018-06-20T05:18:18.114Z,1019.35
2018-06-20T05:19:18.045Z,1019.42
2018-06-20T05:20:18.142Z,1019.37
2018-06-20T05:21:18.003Z,1019.37
2018-06-20T05:22:18.143Z,1019.35
2018-06-20T05:23:17.969Z,1019.29
2018-06-20T05:24:18.052Z,1019.32
2018-06-20T05:25:17.927Z,1019.34
2018-06-20T05:26:18.065Z,1019.31
2018-06-20T05:27:17.881Z,1019.32
2018-06-20T05:28:17.972Z,1019.31
2018-06-20T05:29:17.854Z,1019.31
2018-06-20T05:30:17.973Z,1019.30
2018-06-20T05:31:17.801Z,1019.35
2018-06-20T05:32:17.911Z,1019.36
2018-06-20T05:33:17.767Z,1019.32
2018-06-20T05:34:17.925Z,1019.34
2018-06-20T05:35:17.723Z,1019.35
2018-06-20T05:36:17.833Z,1019.32
2018-06-20T05:37:17.692Z,1019.30
2018-06-20T05:38:17.850Z,1019.31
2018-06-20T05:39:17.640Z,1019.27
2018-06-20T05:40:17.761Z,1019.25
2018-06-20T05:41:17.595Z,1019.28
2018-06-20T05:42:17.766Z,1019.28
2018-06-20T05:43:17.554Z,1019.26
2018-06-20T05:44:17.680Z,1019.28
2018-06-20T05:45:17.509Z,1019.24
2018-06-20T05:46:17.697Z,1019.24
2018-06-20T05:47:17.470Z,1019.25
2018-06-20T05:48:17.609Z,1019.21
2018-06-20T05:49:17.429Z,1019.22
2018-06-20T05:50:17.618Z,1019.18
2018-06-20T05:51:17.396Z,1019.21
2018-06-20T05:52:17.530Z,1019.23
2018-06-20T05:53:17.345Z,1019.23
2018-06-20T05:54:17.551Z,1019.25
2018-06-20T05:55:17.311Z,1019.25
2018-06-20T05:56:17.456Z,1019.23
2018-06-20T05:57:17.265Z,1019.20
2018-06-20T05:58:17.477Z,1019.16
2018-06-20T05:59:17.229Z,1019.21
2018-06-20T06:00:17.389Z,1019.19
2018-06-20T06:01:17.190Z,1019.23
2018-06-20T06:02:17.191Z,1019.25
2018-06-20T06:03:17.152Z,1019.25
2018-06-20T06:04:17.310Z,1019.29
2018-06-20T06:05:17.160Z,1019.28
2018-06-20T06:06:17.224Z,1019.31
2018-06-20T06:07:17.072Z,1019.26
2018-06-20T06:08:17.042Z,1019.32
2018-06-20T06:09:17.142Z,1019.33
2018-06-20T06:10:17.005Z,1019.33
2018-06-20T06:11:17.051Z,1019.31
2018-06-20T06:12:16.963Z,1019.32
2018-06-20T06:13:17.064Z,1019.33
2018-06-20T06:14:16.933Z,1019.31
2018-06-20T06:15:16.974Z,1019.35
2018-06-20T06:16:16.891Z,1019.36
2018-06-20T06:17:16.986Z,1019.40
2018-06-20T06:18:16.849Z,1019.37
2018-06-20T06:19:16.897Z,1019.37
2018-06-20T06:20:16.805Z,1019.36
2018-06-20T06:21:16.909Z,1019.32
2018-06-20T06:22:16.766Z,1019.36
2018-06-20T06:23:16.835Z,1019.37
2018-06-20T06:24:16.725Z,1019.31
2018-06-20T06:25:16.838Z,1019.30
2018-06-20T06:26:16.682Z,1019.34
2018-06-20T06:27:16.748Z,1019.36
2018-06-20T06:28:16.646Z,1019.35
2018-06-20T06:29:16.763Z,1019.36
2018-06-20T06:30:16.608Z,1019.41
2018-06-20T06:31:16.676Z,1019.35
2018-06-20T06:32:16.571Z,1019.35
2018-06-20T06:33:16.689Z,1019.36
2018-06-20T06:34:16.536Z,1019.30
2018-06-20T06:35:16.601Z,1019.34
2018-06-20T06:36:16.493Z,1019.32
2018-06-20T06:37:16.618Z,1019.31
2018-06-20T06:38:16.448Z,1019.35
2018-06-20T06:39:16.549Z,1019.27
2018-06-20T06:40:16.409Z,1019.29
2018-06-20T06:41:16.541Z,1019.30
2018-06-20T06:42:16.372Z,1019.30
2018-06-20T06:43:16.451Z,1019.29
2018-06-20T06:44:16.333Z,1019.34
2018-06-20T06:45:16.365Z,1019.31
2018-06-20T06:46:16.292Z,1019.30
2018-06-20T06:47:16.382Z,1019.30
2018-06-20T06:48:16.257Z,1019.31
2018-06-20T06:49:16.292Z,1019.29
2018-06-20T06:50:16.214Z,1019.23
2018-06-20T06:51:16.305Z,1019.24
2018-06-20T06:52:16.175Z,1019.21
2018-06-20T06:53:16.215Z,1019.21
2018-06-20T06:54:16.137Z,1019.21
2018-06-20T06:55:16.229Z,1019.22
2018-06-20T06:58:02.764Z,1019.18
2018-06-20T06:58:47.719Z,1019.23
2018-06-20T07:00:40.763Z,1019.19
2018-06-20T07:01:40.574Z,1019.19
2018-06-20T07:02:40.661Z,1019.22
2018-06-20T07:03:40.541Z,1019.17
2018-06-20T07:04:40.664Z,1019.18
2018-06-20T07:05:40.497Z,1019.18
2018-06-20T07:06:40.577Z,1019.17
2018-06-20T07:07:40.463Z,1019.20
2018-06-20T07:08:40.589Z,1019.17
2018-06-20T07:09:40.419Z,1019.20
2018-06-20T07:10:40.501Z,1019.20
2018-06-20T07:11:40.379Z,1019.21
2018-06-20T07:12:40.519Z,1019.20
2018-06-20T07:13:40.341Z,1019.26
2018-06-20T07:14:40.426Z,1019.26
2018-06-20T07:15:40.303Z,1019.27
2018-06-20T07:16:40.442Z,1019.24
2018-06-20T07:17:40.263Z,1019.31
2018-06-20T07:18:40.353Z,1019.27
2018-06-20T07:19:40.228Z,1019.28
2018-06-20T07:20:40.369Z,1019.26
2018-06-20T07:21:40.189Z,1019.27
2018-06-20T07:22:40.279Z,1019.25
2018-06-20T07:23:40.150Z,1019.26
2018-06-20T07:24:40.298Z,1019.30
2018-06-20T07:25:40.112Z,1019.30
2018-06-20T07:26:40.206Z,1019.30
2018-06-20T07:27:40.083Z,1019.27
2018-06-20T07:28:40.222Z,1019.29
2018-06-20T07:29:40.037Z,1019.27
2018-06-20T07:30:40.198Z,1019.25
2018-06-20T07:31:40.000Z,1019.27
2018-06-20T07:32:40.151Z,1019.25
2018-06-20T07:33:39.959Z,1019.26
2018-06-20T07:34:40.057Z,1019.22
2018-06-20T07:35:40.134Z,1019.24
2018-06-20T07:36:40.071Z,1019.26
2018-06-20T07:37:39.885Z,1019.26
2018-06-20T07:38:39.983Z,1019.32
2018-06-20T07:39:39.846Z,1019.25
2018-06-20T07:40:40.003Z,1019.27
2018-06-20T07:41:39.810Z,1019.22
2018-06-20T07:42:39.914Z,1019.23
2018-06-20T07:43:39.778Z,1019.24
2018-06-20T07:44:39.927Z,1019.21
2018-06-20T07:45:39.731Z,1019.19
2018-06-20T07:46:39.838Z,1019.17
2018-06-20T07:47:39.693Z,1019.19
2018-06-20T07:48:40.881Z,1019.16
2018-06-20T07:49:39.655Z,1019.19
2018-06-20T07:50:39.777Z,1019.17
2018-06-20T07:51:39.620Z,1019.17
2018-06-20T07:52:39.785Z,1019.17
2018-06-20T07:53:39.580Z,1019.14
2018-06-20T07:54:39.688Z,1019.15
2018-06-20T07:55:39.543Z,1019.14
2018-06-20T07:56:39.708Z,1019.13
2018-06-20T07:57:39.505Z,1019.15
2018-06-20T07:58:39.620Z,1019.15
2018-06-20T07:59:39.467Z,1019.20
2018-06-20T08:00:39.666Z,1019.19
2018-06-20T08:01:39.431Z,1019.24
2018-06-20T08:02:39.540Z,1019.23
2018-06-20T08:03:39.394Z,1019.22
2018-06-20T08:04:39.560Z,1019.19
2018-06-20T08:05:39.376Z,1019.24
2018-06-20T08:06:39.472Z,1019.24
2018-06-20T08:07:39.321Z,1019.19
2018-06-20T08:08:39.380Z,1019.19
2018-06-20T08:09:39.286Z,1019.21
2018-06-20T08:10:39.286Z,1019.17
2018-06-20T08:11:39.261Z,1019.11
2018-06-20T08:12:39.308Z,1019.11
2018-06-20T08:13:39.217Z,1019.13
2018-06-20T08:14:39.324Z,1019.10
2018-06-20T08:15:39.175Z,1019.09
2018-06-20T08:16:39.228Z,1019.16
2018-06-20T08:17:39.138Z,1019.15
2018-06-20T08:18:39.248Z,1019.06
2018-06-20T08:19:39.098Z,1019.08
2018-06-20T08:20:39.158Z,1019.10
2018-06-20T08:21:39.065Z,1019.06
2018-06-20T08:22:39.172Z,1019.06
2018-06-20T08:23:39.032Z,1019.09
2018-06-20T08:24:39.084Z,1019.12
2018-06-20T08:25:39.005Z,1019.09
2018-06-20T08:26:39.124Z,1019.03
2018-06-20T08:27:38.949Z,1018.99
2018-06-20T08:28:39.009Z,1019.05
2018-06-20T08:29:38.960Z,1019.05
2018-06-20T08:30:39.023Z,1019.03
2018-06-20T08:31:38.883Z,1018.96
2018-06-20T08:32:38.926Z,1018.97
2018-06-20T08:33:38.844Z,1018.94
2018-06-20T08:34:38.942Z,1019.02
2018-06-20T08:35:38.810Z,1018.99
2018-06-20T08:36:38.858Z,1019.05
2018-06-20T08:37:38.774Z,1018.99
2018-06-20T08:38:38.874Z,1018.96
2018-06-20T08:39:38.742Z,1018.95
2018-06-20T08:40:38.786Z,1018.99
2018-06-20T08:41:38.698Z,1019.00
2018-06-20T08:42:38.799Z,1019.01
2018-06-20T08:43:38.667Z,1018.99
2018-06-20T08:44:38.711Z,1018.97
2018-06-20T08:45:38.631Z,1019.02
2018-06-20T08:46:38.722Z,1018.99
2018-06-20T08:47:38.593Z,1018.98
2018-06-20T08:48:38.636Z,1019.01
2018-06-20T08:49:38.558Z,1018.99
2018-06-20T08:50:38.650Z,1018.98
2018-06-20T08:51:38.526Z,1018.94
2018-06-20T08:52:38.564Z,1018.96
2018-06-20T08:53:38.484Z,1018.97
2018-06-20T08:54:38.602Z,1018.98
2018-06-20T08:55:38.447Z,1018.98
2018-06-20T08:56:38.591Z,1019.01
2018-06-20T08:57:38.415Z,1018.99
2018-06-20T08:58:38.503Z,1018.97
2018-06-20T08:59:38.379Z,1019.01
2018-06-20T09:00:38.516Z,1018.90
2018-06-20T09:01:38.348Z,1018.95
2018-06-20T09:02:38.433Z,1018.88
2018-06-20T09:03:38.306Z,1018.86
2018-06-20T09:04:38.444Z,1018.86
2018-06-20T09:05:38.277Z,1018.93
2018-06-20T09:06:38.364Z,1018.92
2018-06-20T09:07:38.242Z,1018.87
2018-06-20T09:08:38.375Z,1018.92
2018-06-20T09:09:38.202Z,1018.86
2018-06-20T09:10:38.279Z,1018.88
2018-06-20T09:11:38.167Z,1018.84
2018-06-20T09:12:38.283Z,1018.85
2018-06-20T09:13:38.134Z,1018.85
2018-06-20T09:14:38.207Z,1018.86
2018-06-20T09:15:38.098Z,1018.83
2018-06-20T09:16:38.218Z,1018.86
2018-06-20T09:17:38.068Z,1018.82
2018-06-20T09:18:38.130Z,1018.83
2018-06-20T09:19:38.032Z,1018.85
2018-06-20T09:20:38.146Z,1018.83
2018-06-20T09:21:37.997Z,1018.90
2018-06-20T09:22:38.159Z,1018.86
2018-06-20T09:23:37.961Z,1018.88
2018-06-20T09:24:38.072Z,1018.77
2018-06-20T09:25:37.931Z,1018.78
2018-06-20T09:26:38.083Z,1018.84
2018-06-20T09:27:37.898Z,1018.83
2018-06-20T09:28:37.998Z,1018.83
2018-06-20T09:29:37.865Z,1018.81
2018-06-20T09:30:38.009Z,1018.79
2018-06-20T09:31:37.825Z,1018.85
2018-06-20T09:32:37.924Z,1018.85
2018-06-20T09:33:37.793Z,1018.82
2018-06-20T09:34:37.862Z,1018.82
2018-06-20T09:35:37.761Z,1018.79
2018-06-20T09:36:37.853Z,1018.83
2018-06-20T09:37:37.730Z,1018.82
2018-06-20T09:38:37.830Z,1018.80
2018-06-20T09:39:37.763Z,1018.82
2018-06-20T09:40:37.896Z,1018.78
2018-06-20T09:41:37.668Z,1018.79
2018-06-20T09:42:37.656Z,1018.72
2018-06-20T09:43:37.632Z,1018.77
2018-06-20T09:44:37.866Z,1018.73
2018-06-20T09:45:37.603Z,1018.72
2018-06-20T09:46:37.717Z,1018.71
2018-06-20T09:47:37.582Z,1018.72
2018-06-20T09:48:37.741Z,1018.73
2018-06-20T09:49:37.552Z,1018.74
2018-06-20T09:50:37.656Z,1018.85
2018-06-20T09:51:37.512Z,1018.75
2018-06-20T09:52:37.669Z,1018.72
2018-06-20T09:53:37.485Z,1018.77
2018-06-20T09:54:37.679Z,1018.72
2018-06-20T09:55:37.438Z,1018.76
2018-06-20T09:56:38.450Z,1018.77
2018-06-20T09:57:37.413Z,1018.79
2018-06-20T09:58:37.600Z,1018.78
2018-06-20T09:59:37.379Z,1018.77
2018-06-20T10:00:37.573Z,1018.74
2018-06-20T10:01:37.417Z,1018.67
2018-06-20T10:02:37.525Z,1018.66
2018-06-20T10:03:37.322Z,1018.70
2018-06-20T10:04:37.441Z,1018.77
2018-06-20T10:05:37.292Z,1018.81
2018-06-20T10:06:37.458Z,1018.70
2018-06-20T10:07:37.285Z,1018.69
2018-06-20T10:08:37.469Z,1018.63
2018-06-20T10:09:37.228Z,1018.58
2018-06-20T10:10:37.275Z,1018.57
2018-06-20T10:11:37.199Z,1018.56
2018-06-20T10:12:37.289Z,1018.64
2018-06-20T10:13:37.171Z,1018.58
2018-06-20T10:14:37.199Z,1018.55
2018-06-20T10:15:37.143Z,1018.56
2018-06-20T10:16:37.221Z,1018.63
2018-06-20T10:17:37.139Z,1018.61
2018-06-20T10:18:37.236Z,1018.67
2018-06-20T10:19:37.085Z,1018.65
2018-06-20T10:20:37.147Z,1018.62
2018-06-20T10:21:37.063Z,1018.63
2018-06-20T10:22:37.162Z,1018.63
2018-06-20T10:23:37.018Z,1018.63
2018-06-20T10:24:37.077Z,1018.57
2018-06-20T10:25:37.002Z,1018.56
2018-06-20T10:26:37.085Z,1018.55
2018-06-20T10:27:36.961Z,1018.51
2018-06-20T10:28:36.993Z,1018.53
2018-06-20T10:29:36.938Z,1018.48
2018-06-20T10:30:37.007Z,1018.57
2018-06-20T10:31:36.905Z,1018.57
2018-06-20T10:32:37.017Z,1018.53
2018-06-20T10:33:36.879Z,1018.49
2018-06-20T10:34:38.000Z,1018.41
2018-06-20T10:35:36.843Z,1018.47
2018-06-20T10:36:36.953Z,1018.36
2018-06-20T10:37:36.820Z,1018.44
2018-06-20T10:38:36.858Z,1018.41
2018-06-20T10:39:36.789Z,1018.37
2018-06-20T10:40:36.867Z,1018.41
2018-06-20T10:41:36.759Z,1018.36
2018-06-20T10:42:36.882Z,1018.36
2018-06-20T10:43:36.732Z,1018.37
2018-06-20T10:44:36.793Z,1018.35
2018-06-20T10:45:36.702Z,1018.30
2018-06-20T10:46:36.811Z,1018.33
2018-06-20T10:47:36.677Z,1018.37
2018-06-20T10:48:36.720Z,1018.26
2018-06-20T10:49:36.653Z,1018.26
2018-06-20T10:50:36.735Z,1018.32
2018-06-20T10:51:36.622Z,1018.31
2018-06-20T10:52:36.759Z,1018.33
2018-06-20T10:53:36.591Z,1018.29
2018-06-20T10:54:36.661Z,1018.35
2018-06-20T10:55:36.562Z,1018.32
2018-06-20T10:56:36.677Z,1018.25
2018-06-20T10:57:36.538Z,1018.27
2018-06-20T10:58:36.587Z,1018.36
2018-06-20T10:59:36.509Z,1018.31
2018-06-20T11:00:36.618Z,1018.36
2018-06-20T11:01:36.481Z,1018.34
2018-06-20T11:02:36.614Z,1018.33
2018-06-20T11:03:36.456Z,1018.24
2018-06-20T11:04:36.527Z,1018.22
2018-06-20T11:05:36.427Z,1018.22
2018-06-20T11:06:36.542Z,1018.21
2018-06-20T11:07:36.400Z,1018.21
2018-06-20T11:08:36.388Z,1018.20
2018-06-20T11:09:36.393Z,1018.22
2018-06-20T11:10:36.466Z,1018.18
2018-06-20T11:11:36.346Z,1018.09
2018-06-20T11:12:36.481Z,1018.10
2018-06-20T11:13:36.320Z,1018.09
2018-06-20T11:14:36.304Z,1018.19
2018-06-20T11:15:36.400Z,1018.13
2018-06-20T11:16:36.278Z,1018.12
2018-06-20T11:17:36.414Z,1018.19
2018-06-20T11:18:36.250Z,1018.17
2018-06-20T11:19:36.324Z,1018.15
2018-06-20T11:20:36.223Z,1018.12
2018-06-20T11:21:36.340Z,1018.14
2018-06-20T11:22:36.195Z,1018.11
2018-06-20T11:23:36.354Z,1018.08
2018-06-20T11:24:36.167Z,1018.07
2018-06-20T11:25:36.267Z,1018.02
2018-06-20T11:26:36.140Z,1018.05
2018-06-20T11:27:36.284Z,1018.04
2018-06-20T11:28:36.119Z,1018.03
2018-06-20T11:29:36.201Z,1018.01
2018-06-20T11:30:36.088Z,1017.95
2018-06-20T11:31:36.208Z,1018.02
2018-06-20T11:32:36.062Z,1017.96
2018-06-20T11:33:36.222Z,1017.94
2018-06-20T11:34:36.035Z,1017.99
2018-06-20T11:35:36.136Z,1017.99
2018-06-20T11:36:36.014Z,1017.83
2018-06-20T11:37:36.151Z,1017.86
2018-06-20T11:38:36.155Z,1017.86
2018-06-20T11:39:36.076Z,1017.88
2018-06-20T11:40:35.958Z,1017.90
2018-06-20T11:41:35.967Z,1017.97
2018-06-20T11:42:35.933Z,1017.84
2018-06-20T11:43:35.986Z,1017.86
2018-06-20T11:44:35.992Z,1017.81
2018-06-20T11:45:35.890Z,1017.80
2018-06-20T11:46:35.903Z,1017.78
2018-06-20T11:47:35.865Z,1017.75
2018-06-20T11:48:35.917Z,1017.79
2018-06-20T11:49:35.840Z,1017.78
2018-06-20T11:50:35.930Z,1017.75
2018-06-20T11:51:35.824Z,1017.77
2018-06-20T11:52:35.846Z,1017.81
2018-06-20T11:53:35.788Z,1017.76
2018-06-20T11:54:35.857Z,1017.70
2018-06-20T11:55:35.766Z,1017.66
2018-06-20T11:56:35.774Z,1017.68
2018-06-20T11:57:35.737Z,1017.58
2018-06-20T11:58:35.785Z,1017.59
2018-06-20T11:59:35.714Z,1017.61
2018-06-20T12:00:35.802Z,1017.64
2018-06-20T12:01:35.692Z,1017.53
2018-06-20T12:02:35.711Z,1017.63
2018-06-20T12:03:35.665Z,1017.56
2018-06-20T12:04:35.744Z,1017.55
2018-06-20T12:05:35.641Z,1017.62
2018-06-20T12:06:35.739Z,1017.60
2018-06-20T12:07:35.623Z,1017.61